Share

Rib Lake, WI (54470)

Taylor County (KMDZ) Elev 1470 ft | 45.10 °N, 90.30 °W | Change Station

Current weather conditions updated 22 minutes ago

Clear
Clear
48 °F
Feels Like 48 °F
N
16
Wind Variable Wind from SSE
Gusts 22 mph
Sunrise 6:08 AM
Sunset 7:51 PM
Moon Waning Gibbous

Today is forecast to be Much Warmer than yesterday. Showers possible tonight.

Pressure 30.22 in
Visibility 10.0 miles
Clouds Clear
Dew Point 31 °F
Humidity 52%
Rainfall 0.00 in
Snow Depth Not available.
UV 9 out of 16
Pollen 9.70 out of 12
Air Quality Not available.
Flu Activity Sporadic
METAR KMDZ 191735Z AUTO 15014G19KT 10SM CLR 09/00 A3022 RMK AO2 T00881005

More Conditions Fewer Conditions

Pressure 30.22 in
Visibility 10.0 miles
Clouds Clear
Dew Point 31 °F
Humidity 52%
Rainfall 0.00 in
Snow Depth Not available.
UV 9 out of 16
Pollen 9.70 out of 12
Air Quality Not available.
Flu Activity Sporadic
METAR KMDZ 191735Z AUTO 15014G19KT 10SM CLR 09/00 A3022 RMK AO2 T00881005

More Conditions Fewer Conditions

10-Day Weather Forecast

Almanac

Astronomy

Apr. 19, 2014 Rise Set
Actual Time 6:08 AM CDT 7:51 PM CDT
Civil Twilight 5:37 AM CDT 8:23 PM CDT
Nautical Twilight 4:59 AM CDT 9:01 PM CDT
Astronomical Twilight 4:18 AM CDT 9:42 PM CDT
Moon No Moon Rise 9:20 AM CDT
Length of Visible Light 14h 45m
Length of Day
13h 43m
Tomorrow will be 2m 59s longer.
Waning Gibbous, 78% of the Moon is Illuminated
Today
Waning Gibbous
Apr 22
Last Quarter
Apr 29
New
May 6
First Quarter
May 14
Full

Today's Extremes

State Highs State Lows

Community

  • Piriapolis
    Piriapolis
  • A Glorious Morning
    A Glorious Morning
  • Tender Rays Of Hope
    Tender Rays Of Hope
  • Bleeding Hearts
    Bleeding Hearts
  • Sunset Silhouettes
    Sunset Silhouettes

WunderPhotos

Upload Photos

1,702,810 photos uploaded!

WunderBlogs® & News

Nearby

Snow Depth

Station Depth Elevation
No new snow has been reported.

Coastal Water Temperatures

Place Temperature
No Stations Reporting

Earthquake Activity

City Distance Mag. Time & Date
No recent earthquake activity has been reported nearby.
Minimum magnitude displayed is 2.5.

Nearby Weather Stations

Station Location Temp. Windchill Dew Point Humidity Wind Precip. Elev Updated Type
RAWS TOMAHAWK WI, Tomahawk, WI 51 °F - 25 °F 36% SSE  at  6 mph 0.00 in / hr 1449 ft 12:10 PM CDT MADIS
Tomahawk Weather, Tomahawk, WI 48.2 °F 43 °F 27 °F 43% SE  at  14.0 mph 0.00 in / hr 1505 ft 12:57 PM CDT Rapid Fire
Rib Falls Repair, Athens, WI 52.3 °F - 36 °F 54% SE  at  12.0 mph 0.00 in / hr 1348 ft 12:56 PM CDT Normal
Cummings Maple Acres, Phillips, WI 48.9 °F 48 °F 32 °F 53% SSE  at  4.0 mph 0.00 in / hr 1542 ft 12:57 PM CDT Rapid Fire

Show More Stations Show Fewer Stations

What do you think?

We're not finished. Please let us know what you like, what you don't like, and what you are still missing.